Flight Track Log - Related Links

Times and Time Zones

All times are in EDT time to prevent confusion due to time zone crossing. See the N91B flight status page for this flight to view local times or setup timezone preferences in your user account.

Time Position Orientation Groundspeed Altitude Reporting Facility
EDT Latitude Longitude Course Direction KTS MPH feet Rate Location/Type
Wed 07:43:49 PM 25.8003 -80.2722 106° East 150 173 700  Level Miami Center
Wed 07:44:32 PM 25.7908 -80.2350 106° East 181 208 2,300 1,926 Climbing Miami Center
Wed 07:45:10 PM 25.7808 -80.2069 112° Southeast 184 212 3,300 2,082 Climbing Miami Center
Wed 07:46:10 PM 25.7633 -80.1489 108° East 189 217 5,700 2,350 Climbing Miami Center
Wed 07:47:10 PM 25.7500 -80.0886 104° East 194 223 8,000 2,250 Climbing Miami Center
Wed 07:48:10 PM 25.7347 -80.0236 105° East 199 229 10,200 2,100 Climbing Miami Center
Wed 07:49:10 PM 25.7194 -79.9633 106° East 206 237 12,200 1,850 Climbing Miami Center
Wed 07:50:10 PM 25.7019 -79.9006 107° East 206 237 13,900 1,700 Climbing Miami Center
Wed 07:51:10 PM 25.6886 -79.8356 103° East 206 237 15,600 1,650 Climbing Miami Center
Wed 07:52:10 PM 25.6733 -79.7683 104° East 211 243 17,200 1,450 Climbing Miami Center
Wed 07:53:10 PM 25.6578 -79.6989 104° East 217 250 18,500 1,400 Climbing Miami Center
Wed 07:54:10 PM 25.6383 -79.6292 107° East 230 265 20,000 1,200 Climbing Miami Center
Wed 07:55:10 PM 25.6250 -79.5531 101° East 236 272 20,900 500 Climbing Miami Center
Wed 07:56:10 PM 25.6183 -79.4631 95° East 259 298 21,000 50 Climbing Miami Center
Wed 07:57:10 PM 25.6117 -79.3614 94° East 299 344 21,000  Level Miami Center
Wed 07:58:10 PM 25.6094 -79.2578 91° East 330 380 21,000 -50 Level Miami Center
Wed 07:59:10 PM 25.6092 -79.1447 90° East 348 400 20,900 -50 Descending Miami Center
Wed 08:00:10 PM 25.6044 -79.0342 93° East 353 406 20,900 50 Level Miami Center
Wed 08:01:10 PM 25.5914 -78.9256 98° East 358 412 21,000 50 Climbing Miami Center
Wed 08:02:10 PM 25.5719 -78.8192 101° East 358 412 21,000  Level Miami Center
Wed 08:03:10 PM 25.5272 -78.7150 115° Southeast 358 412 21,000 -350 Level Miami Center
Wed 08:04:10 PM 25.4867 -78.6175 115° Southeast 358 412 20,300 -900 Descending Miami Center
Wed 08:05:10 PM 25.4461 -78.5272 116° Southeast 339 390 19,200 -1,750 Descending Miami Center
Wed 08:06:10 PM 25.4053 -78.4369 117° Southeast 329 379 16,800 -2,050 Descending Miami Center
Wed 08:07:10 PM 25.3642 -78.3536 119° Southeast 324 373 15,100 -1,600 Descending Miami Center
Wed 08:08:10 PM 25.3233 -78.2611 116° Southeast 314 361 13,600 -1,500 Descending Miami Center
Wed 08:09:10 PM 25.2906 -78.1806 114° Southeast 304 350 12,100 -1,500 Descending Miami Center
Wed 08:11:00 PM 25.2409 -78.0427 112° Southeast  Level FlightAware Approximate
Wed 08:18:00 PM 25.0556 -77.5166 110° East  Level FlightAware Approximate
Wed 08:19:00 PM 25.0390 -77.4662 110° East  Level Estimated
Wed 08:20:00 PM 25.0390 -77.4662 110° East  Level Estimated
Wed 08:21:00 PM 25.0390 -77.4662 110° East  Level Estimated
Wed 08:22:00 PM 25.0390 -77.4662 110° East  Level Estimated
Wed 08:23:00 PM 25.0390 -77.4662 110° East  Level Estimated
Wed 08:24:00 PM 25.0390 -77.4662 110° East  Level Estimated
Wed 08:25:00 PM 25.0390 -77.4662 110° East  Level Estimated
Wed 08:26:00 PM 25.0390 -77.4662 110° East  Level Estimated
Wed 08:27:00 PM 25.0390 -77.4662 110° East  Level Estimated
Wed 08:28:00 PM 25.0390 -77.4662 110° East  Level Estimated
Wed 08:29:00 PM 25.0390 -77.4662 110° East  Level Estimated
Wed 08:30:00 PM 25.0390 -77.4662 110° East  Level Estimated
Wed 08:31:00 PM 25.0390 -77.4662 110° East  Level Estimated

Login

Don't have an account? Register now (free) for customized features, flight alerts, and more!